Aurora, IA

7:51 AM CST on November 24, 2014 (GMT -0600)
Maplewood Dr | Change Station
CLOSE
Current Station
Personal Weather Station
Location: Oelwein, IA
Elevation: 1135 ft
Nearby Weather Stations

Elev 1135 ft 42.69 °N, 91.91 °W | Updated 0 second ago

Overcast
Overcast
25.7 °F
Feels Like 15 °F
N
12.3
Wind Variable Wind from NNW
Gusts 14.1 mph

Today
High -- | Low -- °F
--% Chance of Precip.
Yesterday
High -- | Low -- °F
Precip. -- in
7:09 AM 4:37 PM
Waxing Crescent, 5% visible
Pressure 29.31 in
Visibility 2.5 miles
Clouds Overcast 900 ft
Windchill 15 °F
Dew Point 23 °F
Humidity 89%
Rainfall 0.00 in
Snow Depth Not available.
UV 0 out of 12
Pollen .10 out of 12
Air Quality Not available.
Flu Activity Not available.
METAR KOLZ 241335Z AUTO 30026G33KT 2 1/2SM BR OVC009 M03/M05 A2931 RMK AO2 VIS 1 1/4V5

More Conditions Fewer Conditions

Pressure 29.31 in
Visibility 2.5 miles
Clouds Overcast 900 ft
Windchill 15 °F
Dew Point 23 °F
Humidity 89%
Rainfall 0.00 in
Snow Depth Not available.
UV 0 out of 12
Pollen .10 out of 12
Air Quality Not available.
Flu Activity Not available.
METAR KOLZ 241335Z AUTO 30026G33KT 2 1/2SM BR OVC009 M03/M05 A2931 RMK AO2 VIS 1 1/4V5

More Conditions Fewer Conditions

10-Day Weather Forecast

Almanac

Astronomy

Nov. 24, 2014 Rise Set
Actual Time
Civil Twilight
Nautical Twilight
Astronomical Twilight
Moon
Length of Visible Light
Length of Day
Tomorrow will be .
, % of the Moon is Illuminated

Today's Extremes

State Highs State Lows

Community

WunderPhotos

Upload Photos

1,773,332 photos uploaded!

WunderBlogs® & News

Nearby

Air Quality

  Air Quality AQ Index Pollutant
Not available.

Snow Depth

Station Depth Elevation

Earthquake Activity

City Distance Mag. Time & Date
Minimum magnitude displayed is 2.5.

Coastal Water Temperatures

Place Temperature

Nearby Weather Stations